createdAt,value
2023-11-18T00:00:55.336Z,102498.88
2023-11-18T00:05:56.872Z,102496.19
2023-11-18T00:10:58.393Z,102502.88
2023-11-18T00:15:59.859Z,102498.50
2023-11-18T00:21:01.308Z,102504.28
2023-11-18T00:26:02.940Z,102501.69
2023-11-18T00:31:04.841Z,102505.94
2023-11-18T00:36:07.359Z,102509.34
2023-11-18T00:41:09.198Z,102507.66
2023-11-18T00:46:10.778Z,102510.28
2023-11-18T00:51:12.273Z,102517.16
2023-11-18T00:56:16.640Z,102522.28
2023-11-18T01:01:18.174Z,102515.50
2023-11-18T01:06:19.792Z,102518.88
2023-11-18T01:11:21.645Z,102523.09
2023-11-18T01:16:23.165Z,102517.84
2023-11-18T01:21:24.700Z,102517.84
2023-11-18T01:26:26.173Z,102518.66
2023-11-18T01:31:32.189Z,102525.34
2023-11-18T01:36:35.886Z,102534.75
2023-11-18T01:41:37.370Z,102532.94
2023-11-18T01:46:38.899Z,102528.53
2023-11-18T01:51:43.743Z,102544.59
2023-11-18T01:56:50.204Z,102549.72
2023-11-18T02:01:53.772Z,102556.53
2023-11-18T02:06:55.527Z,102557.34
2023-11-18T02:12:16.916Z,102564.03
2023-11-18T02:17:22.984Z,102572.53
2023-11-18T02:22:26.608Z,102565.69
2023-11-18T02:27:28.089Z,102578.34
2023-11-18T02:32:40.857Z,102577.47
2023-11-18T02:37:45.811Z,102573.19
2023-11-18T02:42:49.429Z,102583.41
2023-11-18T02:47:51.074Z,102580.91
2023-11-18T02:52:52.597Z,102590.22
2023-11-18T02:57:54.120Z,102583.41
2023-11-18T03:02:55.842Z,102573.25
2023-11-18T03:07:57.388Z,102560.50
2023-11-18T03:12:58.882Z,102555.50
2023-11-18T03:18:00.443Z,102546.94
2023-11-18T03:23:02.077Z,102554.53
2023-11-18T03:28:03.672Z,102568.94
2023-11-18T03:33:05.228Z,102568.78
2023-11-18T03:38:06.767Z,102562.84
2023-11-18T03:43:08.417Z,102572.00
2023-11-18T03:48:10.019Z,102567.47
2023-11-18T03:53:12.288Z,102572.31
2023-11-18T03:58:13.821Z,102571.19
2023-11-18T04:03:15.315Z,102575.19
2023-11-18T04:08:16.818Z,102576.56
2023-11-18T04:13:18.261Z,102580.59
2023-11-18T04:18:19.738Z,102576.09
2023-11-18T04:23:21.198Z,102586.00
2023-11-18T04:28:22.662Z,102579.66
2023-11-18T04:33:24.124Z,102585.38
2023-11-18T04:38:27.334Z,102588.56
2023-11-18T04:43:35.101Z,102595.41
2023-11-18T04:48:44.243Z,102584.69
2023-11-18T04:53:45.877Z,102573.59
2023-11-18T04:58:47.442Z,102562.31
2023-11-18T05:03:49.029Z,102554.59
2023-11-18T05:08:50.652Z,102551.19
2023-11-18T05:13:52.163Z,102549.47
2023-11-18T05:18:53.618Z,102541.94
2023-11-18T05:23:55.126Z,102534.31
2023-11-18T05:28:56.611Z,102547.84
2023-11-18T05:33:58.103Z,102540.25
2023-11-18T05:38:59.543Z,102533.50
2023-11-18T05:44:01.064Z,102526.00
2023-11-18T05:49:04.117Z,102522.53
2023-11-18T05:54:05.605Z,102531.91
2023-11-18T05:59:07.093Z,102529.38
2023-11-18T06:04:08.653Z,102524.44
2023-11-18T06:09:10.185Z,102520.97
2023-11-18T06:14:12.103Z,102514.97
2023-11-18T06:19:13.568Z,102522.47
2023-11-18T06:24:15.016Z,102506.38
2023-11-18T06:29:16.651Z,102507.13
2023-11-18T06:34:18.169Z,102513.94
2023-11-18T06:39:19.804Z,102515.56
2023-11-18T06:44:21.275Z,102533.31
2023-11-18T06:49:22.745Z,102548.53
2023-11-18T06:54:24.196Z,102556.22
2023-11-18T06:59:25.636Z,102555.38
2023-11-18T07:04:27.096Z,102569.03
2023-11-18T07:09:28.524Z,102579.41
2023-11-18T07:14:30.308Z,102558.22
2023-11-18T07:19:31.760Z,102545.53
2023-11-18T07:24:33.814Z,102553.25
2023-11-18T07:29:35.248Z,102558.38
2023-11-18T07:34:36.750Z,102570.44
2023-11-18T07:39:38.213Z,102571.56
2023-11-18T07:44:39.824Z,102555.72
2023-11-18T07:49:41.334Z,102553.28
2023-11-18T07:54:42.813Z,102557.66
2023-11-18T07:59:44.253Z,102542.75
2023-11-18T08:04:45.809Z,102546.47
2023-11-18T08:09:47.319Z,102543.28
2023-11-18T08:14:48.797Z,102550.28
2023-11-18T08:19:50.324Z,102532.72
2023-11-18T08:24:51.859Z,102525.19
2023-11-18T08:29:53.294Z,102509.88
2023-11-18T08:34:54.784Z,102516.78
2023-11-18T08:39:56.267Z,102515.84
2023-11-18T08:44:57.694Z,102510.72
2023-11-18T08:49:59.144Z,102505.03
2023-11-18T08:55:00.579Z,102501.94
2023-11-18T09:00:02.059Z,102499.69
2023-11-18T09:05:03.615Z,102490.84
2023-11-18T09:10:05.451Z,102487.72
2023-11-18T09:15:07.119Z,102484.47
2023-11-18T09:20:09.359Z,102492.38
2023-11-18T09:25:10.893Z,102494.19
2023-11-18T09:30:12.675Z,102490.75
2023-11-18T09:35:15.073Z,102483.19
2023-11-18T09:40:17.748Z,102492.66
2023-11-18T09:45:19.225Z,102490.94
2023-11-18T09:50:29.082Z,102473.97
2023-11-18T09:55:43.806Z,102469.72
2023-11-18T10:00:49.678Z,102477.41
2023-11-18T10:05:52.988Z,102476.56
2023-11-18T10:10:54.494Z,102455.25
2023-11-18T10:15:55.938Z,102437.28
2023-11-18T10:20:57.434Z,102449.19
2023-11-18T10:25:59.646Z,102435.44
2023-11-18T10:31:03.509Z,102423.44
2023-11-18T10:36:06.676Z,102418.28
2023-11-18T10:41:08.157Z,102415.66
2023-11-18T10:46:11.099Z,102416.38
2023-11-18T10:51:16.829Z,102394.91
2023-11-18T10:56:18.746Z,102370.22
2023-11-18T11:01:28.958Z,102359.22
2023-11-18T11:06:31.032Z,102350.66
2023-11-18T11:11:41.107Z,102344.78
2023-11-18T11:16:45.992Z,102324.38
2023-11-18T11:21:53.164Z,102334.59
2023-11-18T11:27:05.830Z,102333.63
2023-11-18T11:32:10.340Z,102315.56
2023-11-18T11:37:12.453Z,102310.38
2023-11-18T11:42:15.862Z,102301.06
2023-11-18T11:47:18.267Z,102303.63
2023-11-18T11:52:28.922Z,102298.59
2023-11-18T11:57:33.810Z,102304.56
2023-11-18T12:02:36.400Z,102302.03
2023-11-18T12:07:41.072Z,102296.00
2023-11-18T12:12:42.582Z,102281.50
2023-11-18T12:17:53.022Z,102294.34
2023-11-18T12:23:04.935Z,102299.44
2023-11-18T12:28:10.667Z,102291.75
2023-11-18T12:33:12.187Z,102290.91
2023-11-18T12:39:02.206Z,102276.50
2023-11-18T12:44:15.503Z,102275.72
2023-11-18T12:49:18.215Z,102266.41
2023-11-18T12:54:25.353Z,102278.38
2023-11-18T12:59:26.884Z,102271.56
2023-11-18T13:04:28.871Z,102276.72
2023-11-18T13:09:30.601Z,102279.25
2023-11-18T13:14:33.725Z,102267.31
2023-11-18T13:19:36.022Z,102263.91
2023-11-18T13:24:41.123Z,102242.56
2023-11-18T13:29:49.397Z,102239.13
2023-11-18T13:34:51.026Z,102222.91
2023-11-18T13:39:58.590Z,102189.66
2023-11-18T13:45:01.294Z,102161.53
2023-11-18T13:50:07.918Z,102145.31
2023-11-18T13:55:09.481Z,102130.84
2023-11-18T14:00:12.015Z,102121.50
2023-11-18T14:05:17.427Z,102118.94
2023-11-18T14:10:19.252Z,102119.00
2023-11-18T14:15:20.744Z,102119.00
2023-11-18T14:20:22.260Z,102090.00
2023-11-18T14:25:24.105Z,102093.44
2023-11-18T14:30:25.607Z,102099.41
2023-11-18T14:35:30.097Z,102077.28
2023-11-18T14:40:31.976Z,102049.16
2023-11-18T14:45:33.444Z,102025.31
2023-11-18T14:50:34.930Z,102027.06
2023-11-18T14:55:36.412Z,102031.31
2023-11-18T15:00:37.887Z,102045.78
2023-11-18T15:05:39.524Z,102031.31
2023-11-18T15:10:41.376Z,102015.94
2023-11-18T15:15:42.967Z,102008.28
2023-11-18T15:20:47.987Z,101995.50
2023-11-18T15:25:50.199Z,101996.34
2023-11-18T15:30:51.823Z,101997.19
2023-11-18T15:35:53.398Z,102005.75
2023-11-18T15:40:55.112Z,101971.59
2023-11-18T15:45:56.616Z,101951.13
2023-11-18T15:51:00.631Z,101940.09
2023-11-18T15:56:02.528Z,101966.50
2023-11-18T16:01:04.514Z,101955.44
2023-11-18T16:06:06.681Z,101938.38
2023-11-18T16:11:08.201Z,101940.06
2023-11-18T16:16:09.814Z,101942.63
2023-11-18T16:21:11.285Z,101931.56
2023-11-18T16:26:12.791Z,101930.78
2023-11-18T16:31:14.330Z,101920.53
2023-11-18T16:36:21.596Z,101918.88
2023-11-18T16:41:24.112Z,101908.66
2023-11-18T16:46:25.704Z,101924.81
2023-11-18T16:51:27.224Z,101920.53
2023-11-18T16:56:29.573Z,101918.00
2023-11-18T17:01:31.053Z,101895.84
2023-11-18T17:06:32.509Z,101872.81
2023-11-18T17:11:33.991Z,101858.34
2023-11-18T17:16:35.501Z,101851.53
2023-11-18T17:21:37.058Z,101840.47
2023-11-18T17:26:38.575Z,101828.53
2023-11-18T17:31:40.521Z,101827.69
2023-11-18T17:36:41.991Z,101809.78
2023-11-18T17:41:43.451Z,101799.56
2023-11-18T17:46:44.943Z,101794.44
2023-11-18T17:51:46.442Z,101776.53
2023-11-18T17:56:48.014Z,101779.91
2023-11-18T18:01:49.808Z,101756.03
2023-11-18T18:06:51.429Z,101739.84
2023-11-18T18:11:52.918Z,101739.00
2023-11-18T18:16:54.399Z,101720.25
2023-11-18T18:21:55.905Z,101724.53
2023-11-18T18:26:57.398Z,101740.72
2023-11-18T18:31:58.928Z,101738.19
2023-11-18T18:37:00.429Z,101716.91
2023-11-18T18:42:01.886Z,101699.88
2023-11-18T18:47:03.628Z,101667.50
2023-11-18T18:52:05.179Z,101649.63
2023-11-18T18:57:06.991Z,101641.13
2023-11-18T19:02:08.555Z,101656.50
2023-11-18T19:07:10.066Z,101679.47
2023-11-18T19:12:11.549Z,101678.56
2023-11-18T19:17:13.059Z,101629.13
2023-11-18T19:22:14.540Z,101612.09
2023-11-18T19:27:15.979Z,101584.78
2023-11-18T19:32:17.462Z,101559.28
2023-11-18T19:37:18.981Z,101543.06
2023-11-18T19:42:20.448Z,101496.25
2023-11-18T19:47:21.975Z,101486.88
2023-11-18T19:52:23.475Z,101468.97
2023-11-18T19:57:25.046Z,101428.06
2023-11-18T20:02:26.605Z,101434.03
2023-11-18T20:07:28.164Z,101427.19
2023-11-18T20:12:31.645Z,101401.59
2023-11-18T20:17:34.888Z,101403.25
2023-11-18T20:22:36.551Z,101398.03
2023-11-18T20:27:38.081Z,101399.69
2023-11-18T20:32:39.646Z,101396.19
2023-11-18T20:37:41.213Z,101390.22
2023-11-18T20:42:42.647Z,101389.38
2023-11-18T20:47:45.542Z,101373.13
2023-11-18T20:52:47.201Z,101362.88
2023-11-18T20:57:48.696Z,101348.34
2023-11-18T21:02:50.444Z,101325.31
2023-11-18T21:07:52.084Z,101309.09
2023-11-18T21:12:53.573Z,101291.16
2023-11-18T21:17:55.192Z,101296.25
2023-11-18T21:22:56.951Z,101283.44
2023-11-18T21:28:04.235Z,101269.75
2023-11-18T21:33:06.198Z,101267.13
2023-11-18T21:38:07.720Z,101247.50
2023-11-18T21:43:09.318Z,101232.97
2023-11-18T21:48:10.800Z,101218.41
2023-11-18T21:53:12.372Z,101197.94
2023-11-18T21:58:13.894Z,101188.59
2023-11-18T22:03:15.543Z,101181.69
2023-11-18T22:08:17.198Z,101168.91
2023-11-18T22:13:18.720Z,101161.22
2023-11-18T22:18:20.243Z,101153.56
2023-11-18T22:23:21.727Z,101145.03
2023-11-18T22:28:23.245Z,101140.75
2023-11-18T22:33:25.644Z,101129.69
2023-11-18T22:38:27.557Z,101103.28
2023-11-18T22:43:29.130Z,101099.03
2023-11-18T22:48:30.580Z,101089.63
2023-11-18T22:53:32.318Z,101089.63
2023-11-18T22:58:33.772Z,101083.66
2023-11-18T23:03:35.319Z,101073.50
2023-11-18T23:08:38.136Z,101057.31
2023-11-18T23:13:39.830Z,101048.84
2023-11-18T23:18:44.216Z,101039.44
2023-11-18T23:23:45.752Z,101011.41
2023-11-18T23:28:47.233Z,101006.28
2023-11-18T23:33:48.716Z,101000.34
2023-11-18T23:38:50.171Z,100999.53
2023-11-18T23:43:51.704Z,100978.22
2023-11-18T23:48:53.774Z,100971.38
2023-11-18T23:53:55.233Z,100956.88
2023-11-18T23:58:56.670Z,100950.91
